Ogden Dunes, Indiana
Current Conditions -  °F | °C
As of 8:28 AM on Thursday 29 Jan 2015 (Local Time) from KVPZ Reporting Station
Broken Clouds Broken Clouds  
Wind Chill: 28°   Ceiling: 2200
Heat Index: 36°   Visibility: 10mi
Dew Point: 30°   Wind: 10mph
Humidity: 79%   Direction: 290°WNW
Pressure: 29.74"   Gusts: NA
Location:  41.5825°N, 87.1726°W
Report Text: KVPZ 291428Z AUTO 29009KT 10SM BKN022 BKN029 BKN110 02/M01 A2974 RMK AO2 T00221011 TSNO
Loading
Personal Weather Stations






























Interactive Weather Map New forecast layout! Learn more

10-Day Weather Forecast

Advertisements
Track Severe Weather on mobile